createdAt,value
2022-09-04T00:00:11.978Z,85.44
2022-09-04T00:01:11.956Z,85.24
2022-09-04T00:02:11.959Z,85.14
2022-09-04T00:03:12.001Z,85.24
2022-09-04T00:04:12.092Z,85.33
2022-09-04T00:05:12.049Z,85.33
2022-09-04T00:06:11.868Z,85.53
2022-09-04T00:07:11.873Z,85.24
2022-09-04T00:08:11.844Z,85.44
2022-09-04T00:09:11.837Z,85.64
2022-09-04T00:10:11.801Z,85.33
2022-09-04T00:11:11.795Z,85.33
2022-09-04T00:12:11.762Z,85.44
2022-09-04T00:13:11.767Z,85.64
2022-09-04T00:14:11.744Z,86.44
2022-09-04T00:15:11.724Z,86.44
2022-09-04T00:16:11.726Z,86.44
2022-09-04T00:17:11.681Z,86.48
2022-09-04T00:18:11.675Z,86.65
2022-09-04T00:19:11.651Z,86.44
2022-09-04T00:20:11.622Z,86.48
2022-09-04T00:21:11.605Z,86.44
2022-09-04T00:22:11.596Z,86.44
2022-09-04T00:23:11.590Z,86.44
2022-09-04T00:24:11.556Z,85.74
2022-09-04T00:25:11.553Z,85.53
2022-09-04T00:26:11.532Z,85.53
2022-09-04T00:27:11.509Z,86.54
2022-09-04T00:28:11.516Z,85.53
2022-09-04T00:29:11.490Z,85.74
2022-09-04T00:30:11.460Z,85.78
2022-09-04T00:31:11.501Z,85.98
2022-09-04T00:32:11.425Z,86.34
2022-09-04T00:33:11.405Z,86.58
2022-09-04T00:34:11.383Z,86.48
2022-09-04T00:35:11.386Z,86.18
2022-09-04T00:36:11.349Z,86.28
2022-09-04T00:37:11.354Z,86.28
2022-09-04T00:38:11.313Z,86.28
2022-09-04T00:39:13.892Z,86.28
2022-09-04T00:40:11.299Z,86.38
2022-09-04T00:41:11.264Z,86.68
2022-09-04T00:42:11.251Z,86.63
2022-09-04T00:43:11.230Z,86.68
2022-09-04T00:44:11.209Z,86.58
2022-09-04T00:45:11.898Z,86.58
2022-09-04T00:46:11.224Z,86.43
2022-09-04T00:47:11.163Z,86.38
2022-09-04T00:48:11.146Z,86.58
2022-09-04T00:49:11.125Z,86.88
2022-09-04T00:50:11.116Z,86.38
2022-09-04T00:51:11.085Z,86.68
2022-09-04T00:52:11.094Z,86.79
2022-09-04T00:53:11.050Z,86.58
2022-09-04T00:54:11.039Z,86.83
2022-09-04T00:56:52.937Z,87.33
2022-09-04T00:57:52.904Z,86.88
2022-09-04T00:58:52.890Z,86.79
2022-09-04T00:59:52.874Z,86.93
2022-09-04T01:00:52.904Z,86.99
2022-09-04T01:01:52.935Z,87.23
2022-09-04T01:02:52.834Z,87.08
2022-09-04T01:03:52.796Z,86.88
2022-09-04T01:04:52.786Z,87.23
2022-09-04T01:05:52.766Z,87.23
2022-09-04T01:06:52.754Z,87.02
2022-09-04T01:07:52.746Z,86.83
2022-09-04T01:08:56.110Z,87.13
2022-09-04T01:09:52.697Z,87.13
2022-09-04T01:10:52.686Z,87.29
2022-09-04T01:11:52.656Z,87.33
2022-09-04T01:12:52.644Z,87.63
2022-09-04T01:13:52.640Z,87.63
2022-09-04T01:14:53.165Z,87.23
2022-09-04T01:15:52.590Z,87.33
2022-09-04T01:16:52.620Z,87.53
2022-09-04T01:17:52.557Z,87.13
2022-09-04T01:18:52.599Z,86.93
2022-09-04T01:19:52.532Z,87.13
2022-09-04T01:20:52.497Z,86.93
2022-09-04T01:21:52.490Z,87.02
2022-09-04T01:22:52.474Z,87.83
2022-09-04T01:23:52.450Z,87.77
2022-09-04T01:24:52.445Z,88.34
2022-09-04T01:25:52.428Z,88.43
2022-09-04T01:26:52.409Z,88.68
2022-09-04T01:27:52.379Z,88.58
2022-09-04T01:28:52.365Z,88.34
2022-09-04T01:29:52.349Z,88.28
2022-09-04T01:30:52.321Z,88.07
2022-09-04T01:31:52.370Z,88.68
2022-09-04T01:32:52.297Z,88.48
2022-09-04T01:33:52.274Z,88.38
2022-09-04T01:34:52.256Z,88.34
2022-09-04T01:35:52.249Z,87.93
2022-09-04T01:36:52.248Z,87.83
2022-09-04T01:37:53.475Z,87.77
2022-09-04T01:40:36.002Z,88.13
2022-09-04T01:41:38.345Z,88.34
2022-09-04T01:42:34.399Z,88.68
2022-09-04T01:43:34.380Z,88.68
2022-09-04T01:44:34.382Z,88.68
2022-09-04T01:45:34.392Z,88.48
2022-09-04T01:46:34.346Z,88.68
2022-09-04T01:47:34.309Z,88.78
2022-09-04T01:48:34.309Z,88.98
2022-09-04T01:49:34.274Z,89.39
2022-09-04T01:50:34.263Z,89.59
2022-09-04T01:51:34.243Z,89.39
2022-09-04T01:52:34.233Z,89.69
2022-09-04T01:53:34.226Z,89.89
2022-09-04T01:54:34.191Z,89.48
2022-09-04T01:55:34.173Z,89.73
2022-09-04T01:56:34.173Z,90.23
2022-09-04T01:57:34.140Z,90.03
2022-09-04T01:58:34.135Z,90.03
2022-09-04T01:59:34.101Z,90.03
2022-09-04T02:00:34.100Z,90.23
2022-09-04T02:01:34.186Z,90.03
2022-09-04T02:02:34.077Z,90.13
2022-09-04T02:03:34.051Z,90.23
2022-09-04T02:04:34.022Z,90.33
2022-09-04T02:05:34.009Z,90.37
2022-09-04T02:06:33.985Z,90.37
2022-09-04T02:07:33.959Z,90.98
2022-09-04T02:08:33.934Z,90.68
2022-09-04T02:09:34.008Z,90.68
2022-09-04T02:10:33.927Z,91.42
2022-09-04T02:11:33.892Z,91.83
2022-09-04T02:12:33.873Z,91.83
2022-09-04T02:13:33.855Z,91.53
2022-09-04T02:14:33.831Z,91.73
2022-09-04T02:15:33.835Z,91.63
2022-09-04T02:16:33.856Z,91.63
2022-09-04T02:17:33.780Z,91.89
2022-09-04T02:18:33.763Z,91.89
2022-09-04T02:19:33.760Z,92.39
2022-09-04T02:20:33.745Z,91.58
2022-09-04T02:21:33.727Z,90.68
2022-09-04T02:22:33.689Z,91.78
2022-09-04T02:23:33.676Z,90.98
2022-09-04T02:24:33.669Z,91.08
2022-09-04T02:25:33.639Z,91.18
2022-09-04T02:26:33.641Z,91.38
2022-09-04T02:27:33.609Z,90.88
2022-09-04T02:28:33.584Z,90.58
2022-09-04T02:29:33.565Z,90.68
2022-09-04T02:30:33.554Z,90.88
2022-09-04T02:31:33.567Z,91.08
2022-09-04T02:32:33.518Z,90.88
2022-09-04T02:33:33.496Z,91.89
2022-09-04T02:34:33.478Z,91.38
2022-09-04T02:35:33.485Z,91.89
2022-09-04T02:36:33.449Z,91.58
2022-09-04T02:37:33.473Z,90.78
2022-09-04T02:38:33.409Z,90.98
2022-09-04T02:39:33.504Z,91.89
2022-09-04T02:40:33.377Z,91.38
2022-09-04T02:41:33.360Z,90.98
2022-09-04T02:42:33.334Z,91.38
2022-09-04T02:43:33.342Z,91.38
2022-09-04T02:44:33.304Z,92.09
2022-09-04T02:45:33.281Z,91.99
2022-09-04T02:46:33.296Z,92.19
2022-09-04T02:47:33.244Z,91.78
2022-09-04T02:48:33.231Z,91.99
2022-09-04T02:49:33.225Z,92.19
2022-09-04T02:50:33.190Z,91.89
2022-09-04T02:51:33.181Z,92.03
2022-09-04T02:52:33.178Z,91.33
2022-09-04T02:53:33.135Z,91.58
2022-09-04T02:54:33.149Z,91.69
2022-09-04T02:55:33.112Z,91.78
2022-09-04T02:56:33.085Z,91.69
2022-09-04T02:57:33.071Z,91.63
2022-09-04T02:58:33.049Z,91.53
2022-09-04T02:59:33.038Z,91.83
2022-09-04T03:00:33.145Z,91.63
2022-09-04T03:01:33.055Z,91.73
2022-09-04T03:02:33.030Z,91.22
2022-09-04T03:03:32.962Z,91.73
2022-09-04T03:04:32.948Z,92.54
2022-09-04T03:05:32.932Z,92.33
2022-09-04T03:06:32.923Z,92.43
2022-09-04T03:07:32.891Z,92.54
2022-09-04T03:08:36.213Z,92.63
2022-09-04T03:09:32.876Z,92.33
2022-09-04T03:10:32.836Z,92.33
2022-09-04T03:11:32.842Z,92.63
2022-09-04T03:12:32.804Z,92.23
2022-09-04T03:13:32.783Z,91.63
2022-09-04T03:14:32.767Z,92.13
2022-09-04T03:15:32.748Z,91.63
2022-09-04T03:16:32.803Z,91.73
2022-09-04T03:17:32.713Z,91.83
2022-09-04T03:18:32.697Z,91.53
2022-09-04T03:19:32.698Z,92.03
2022-09-04T03:20:32.674Z,91.63
2022-09-04T03:21:32.637Z,91.83
2022-09-04T03:22:32.624Z,91.83
2022-09-04T03:23:32.618Z,91.83
2022-09-04T03:24:32.593Z,91.42
2022-09-04T03:25:32.568Z,92.03
2022-09-04T03:26:32.549Z,92.03
2022-09-04T03:27:32.565Z,92.43
2022-09-04T03:28:32.513Z,92.33
2022-09-04T03:29:32.499Z,92.23
2022-09-04T03:30:32.479Z,92.33
2022-09-04T03:31:32.504Z,91.73
2022-09-04T03:32:32.490Z,91.73
2022-09-04T03:33:32.426Z,92.23
2022-09-04T03:34:32.412Z,92.33
2022-09-04T03:35:32.391Z,92.13
2022-09-04T03:36:32.375Z,92.43
2022-09-04T03:37:32.381Z,92.33
2022-09-04T03:38:32.337Z,92.43
2022-09-04T03:39:32.370Z,92.54
2022-09-04T03:40:32.301Z,92.38
2022-09-04T03:41:32.295Z,92.43
2022-09-04T03:42:32.264Z,92.43
2022-09-04T03:43:32.241Z,92.78
2022-09-04T03:44:32.242Z,93.04
2022-09-04T03:45:32.221Z,92.78
2022-09-04T03:46:32.240Z,93.79
2022-09-04T03:47:32.174Z,93.29
2022-09-04T03:48:32.157Z,93.29
2022-09-04T03:49:32.161Z,93.18
2022-09-04T03:50:32.120Z,93.24
2022-09-04T03:51:32.104Z,93.18
2022-09-04T03:52:32.098Z,93.18
2022-09-04T03:53:32.069Z,93.08
2022-09-04T03:54:32.059Z,93.18
2022-09-04T03:55:32.032Z,93.18
2022-09-04T03:56:32.010Z,93.29
2022-09-04T03:57:31.991Z,92.68
2022-09-04T03:58:31.978Z,93.29
2022-09-04T03:59:31.963Z,92.88
2022-09-04T04:00:32.003Z,93.08
2022-09-04T04:01:31.937Z,93.29
2022-09-04T04:02:31.965Z,92.98
2022-09-04T04:03:31.892Z,93.18
2022-09-04T04:04:31.869Z,93.08
2022-09-04T04:05:31.861Z,92.58
2022-09-04T04:06:31.854Z,92.68
2022-09-04T04:07:31.824Z,92.98
2022-09-04T04:08:31.819Z,92.88
2022-09-04T04:09:31.788Z,92.58
2022-09-04T04:10:31.776Z,93.18
2022-09-04T04:11:31.748Z,93.29
2022-09-04T04:12:31.749Z,93.18
2022-09-04T04:13:31.726Z,93.69
2022-09-04T04:14:31.686Z,93.69
2022-09-04T04:15:31.672Z,93.49
2022-09-04T04:16:31.736Z,93.29
2022-09-04T04:17:31.631Z,92.88
2022-09-04T04:18:31.635Z,93.18
2022-09-04T04:19:31.599Z,93.08
2022-09-04T04:20:31.583Z,92.68
2022-09-04T04:21:31.579Z,93.08
2022-09-04T04:22:31.546Z,92.98
2022-09-04T04:23:31.530Z,92.98
2022-09-04T04:24:31.539Z,92.98
2022-09-04T04:25:31.493Z,93.18
2022-09-04T04:26:31.471Z,92.78
2022-09-04T04:27:31.449Z,92.98
2022-09-04T04:28:31.436Z,93.18
2022-09-04T04:29:34.027Z,93.18
2022-09-04T04:30:31.418Z,93.18
2022-09-04T04:31:31.476Z,93.18
2022-09-04T04:32:31.364Z,93.29
2022-09-04T04:33:31.342Z,93.29
2022-09-04T04:34:31.339Z,93.18
2022-09-04T04:35:31.329Z,93.18
2022-09-04T04:36:31.291Z,93.23
2022-09-04T04:37:31.275Z,93.23
2022-09-04T04:38:31.252Z,93.18
2022-09-04T04:39:31.266Z,93.08
2022-09-04T04:40:31.219Z,93.18
2022-09-04T04:41:31.235Z,93.29
2022-09-04T04:42:31.182Z,93.29
2022-09-04T04:43:31.169Z,93.23
2022-09-04T04:44:31.148Z,93.29
2022-09-04T04:45:31.129Z,92.88
2022-09-04T04:46:31.177Z,93.18
2022-09-04T04:47:31.093Z,93.29
2022-09-04T04:48:31.077Z,92.78
2022-09-04T04:49:31.058Z,93.29
2022-09-04T04:50:31.041Z,93.18
2022-09-04T04:51:31.048Z,93.13
2022-09-04T04:52:31.034Z,93.13
2022-09-04T04:53:30.995Z,93.13
2022-09-04T04:54:30.985Z,92.98
2022-09-04T04:55:30.962Z,93.08
2022-09-04T04:56:30.934Z,92.98
2022-09-04T04:57:30.933Z,93.08
2022-09-04T04:58:30.901Z,93.08
2022-09-04T04:59:30.881Z,93.08
2022-09-04T05:00:30.858Z,92.93
2022-09-04T05:01:30.905Z,93.33
2022-09-04T05:02:30.950Z,92.72
2022-09-04T05:03:30.805Z,93.13
2022-09-04T05:04:30.787Z,93.29
2022-09-04T05:05:30.769Z,93.29
2022-09-04T05:06:30.751Z,92.88
2022-09-04T05:07:30.731Z,93.33
2022-09-04T05:08:30.743Z,93.08
2022-09-04T05:09:30.698Z,93.13
2022-09-04T05:10:30.680Z,92.78
2022-09-04T05:11:30.662Z,92.98
2022-09-04T05:12:30.642Z,93.08
2022-09-04T05:13:30.642Z,93.18
2022-09-04T05:14:30.632Z,93.23
2022-09-04T05:15:30.598Z,93.08
2022-09-04T05:16:30.636Z,93.02
2022-09-04T05:17:30.550Z,93.23
2022-09-04T05:18:30.535Z,93.29
2022-09-04T05:19:30.535Z,92.93
2022-09-04T05:20:30.498Z,92.98
2022-09-04T05:21:30.483Z,93.08
2022-09-04T05:22:34.167Z,93.18
2022-09-04T05:23:30.453Z,92.72
2022-09-04T05:24:30.447Z,93.38
2022-09-04T05:25:30.405Z,93.49
2022-09-04T05:26:30.386Z,93.08
2022-09-04T05:27:30.380Z,93.08
2022-09-04T05:28:30.370Z,93.69
2022-09-04T05:29:32.513Z,93.18
2022-09-04T05:30:30.313Z,93.29
2022-09-04T05:31:30.407Z,92.98
2022-09-04T05:32:30.296Z,93.08
2022-09-04T05:33:30.263Z,93.38
2022-09-04T05:34:30.241Z,93.38
2022-09-04T05:35:33.368Z,93.08
2022-09-04T05:36:30.219Z,93.18
2022-09-04T05:37:30.195Z,93.08
2022-09-04T05:38:30.186Z,93.29
2022-09-04T05:39:30.196Z,93.38
2022-09-04T05:42:12.520Z,93.14
2022-09-04T05:43:12.511Z,93.29
2022-09-04T05:44:12.472Z,93.29
2022-09-04T05:45:12.455Z,93.44
2022-09-04T05:46:12.516Z,93.14
2022-09-04T05:47:12.427Z,93.74
2022-09-04T05:48:12.400Z,93.65
2022-09-04T05:49:12.397Z,92.63
2022-09-04T05:50:12.391Z,93.04
2022-09-04T05:51:12.374Z,92.63
2022-09-04T05:52:12.347Z,93.65
2022-09-04T05:53:12.346Z,93.54
2022-09-04T05:54:12.291Z,92.33
2022-09-04T05:55:12.276Z,92.33
2022-09-04T05:56:12.258Z,92.13
2022-09-04T05:57:12.256Z,91.93
2022-09-04T05:58:12.214Z,92.19
2022-09-04T05:59:12.207Z,92.09
2022-09-04T06:00:12.200Z,92.09
2022-09-04T06:01:12.180Z,92.39
2022-09-04T06:02:12.209Z,91.89
2022-09-04T06:03:12.210Z,92.29
2022-09-04T06:04:12.107Z,91.89
2022-09-04T06:05:12.115Z,91.69
2022-09-04T06:06:12.085Z,91.58
2022-09-04T06:07:12.063Z,91.78
2022-09-04T06:08:12.036Z,91.89
2022-09-04T06:09:12.057Z,92.29
2022-09-04T06:10:12.013Z,91.58
2022-09-04T06:11:12.008Z,92.29
2022-09-04T06:12:14.116Z,91.99
2022-09-04T06:13:11.954Z,92.39
2022-09-04T06:14:11.946Z,92.29
2022-09-04T06:15:11.918Z,91.69
2022-09-04T06:16:11.953Z,92.39
2022-09-04T06:17:11.881Z,91.89
2022-09-04T06:18:11.871Z,91.44
2022-09-04T06:19:11.862Z,90.64
2022-09-04T06:20:11.825Z,91.24
2022-09-04T06:21:11.807Z,91.34
2022-09-04T06:22:11.807Z,90.73
2022-09-04T06:23:11.776Z,90.73
2022-09-04T06:24:11.757Z,90.84
2022-09-04T06:25:11.756Z,90.59
2022-09-04T06:26:11.720Z,90.19
2022-09-04T06:27:11.707Z,90.29
2022-09-04T06:28:11.683Z,90.39
2022-09-04T06:29:11.680Z,90.39
2022-09-04T06:30:11.662Z,90.39
2022-09-04T06:31:11.685Z,90.49
2022-09-04T06:32:11.607Z,89.99
2022-09-04T06:33:11.592Z,89.79
2022-09-04T06:34:11.583Z,89.59
2022-09-04T06:35:11.586Z,89.69
2022-09-04T06:36:11.549Z,89.34
2022-09-04T06:37:11.524Z,89.34
2022-09-04T06:38:11.514Z,89.44
2022-09-04T06:40:53.543Z,88.94
2022-09-04T06:41:53.502Z,88.43
2022-09-04T06:42:53.491Z,87.99
2022-09-04T06:43:54.499Z,88.03
2022-09-04T06:44:53.467Z,87.08
2022-09-04T06:45:53.463Z,86.88
2022-09-04T06:46:53.444Z,86.54
2022-09-04T06:47:53.404Z,86.54
2022-09-04T06:48:53.397Z,86.44
2022-09-04T06:49:53.369Z,86.44
2022-09-04T06:50:53.378Z,86.74
2022-09-04T06:51:53.336Z,86.65
2022-09-04T06:52:53.309Z,86.44
2022-09-04T06:53:53.306Z,86.54
2022-09-04T06:54:53.280Z,86.44
2022-09-04T06:55:53.281Z,86.34
2022-09-04T06:56:53.264Z,86.34
2022-09-04T06:57:53.233Z,86.20
2022-09-04T06:58:53.209Z,86.30
2022-09-04T06:59:53.197Z,86.20
2022-09-04T07:00:53.172Z,86.40
2022-09-04T07:01:53.264Z,85.30
2022-09-04T07:02:53.236Z,85.90
2022-09-04T07:03:53.122Z,86.20
2022-09-04T07:04:53.113Z,85.39
2022-09-04T07:05:53.086Z,85.50
2022-09-04T07:06:53.069Z,85.30
2022-09-04T07:07:53.052Z,84.95
2022-09-04T07:08:53.050Z,84.85
2022-09-04T07:09:53.018Z,85.19
2022-09-04T07:10:52.999Z,84.75
2022-09-04T07:11:52.983Z,84.75
2022-09-04T07:12:52.974Z,84.31
2022-09-04T07:13:52.981Z,84.65
2022-09-04T07:14:52.935Z,84.61
2022-09-04T07:15:52.974Z,84.71
2022-09-04T07:16:52.893Z,84.01
2022-09-04T07:17:53.617Z,84.01
2022-09-04T07:18:52.881Z,83.91
2022-09-04T07:19:52.864Z,83.91
2022-09-04T07:20:52.827Z,83.97
2022-09-04T07:21:52.830Z,84.57
2022-09-04T07:22:52.803Z,83.87
2022-09-04T07:23:52.781Z,83.47
2022-09-04T07:24:52.761Z,84.37
2022-09-04T07:25:52.742Z,83.67
2022-09-04T07:26:52.745Z,83.67
2022-09-04T07:27:52.707Z,82.67
2022-09-04T07:28:52.693Z,82.03
2022-09-04T07:29:52.669Z,82.82
2022-09-04T07:30:52.675Z,82.63
2022-09-04T07:31:52.677Z,82.32
2022-09-04T07:32:52.619Z,82.73
2022-09-04T07:33:52.636Z,82.82
2022-09-04T07:34:52.583Z,82.29
2022-09-04T07:35:52.590Z,82.09
2022-09-04T07:36:52.555Z,82.18
2022-09-04T07:37:52.536Z,81.18
2022-09-04T07:38:52.520Z,82.09
2022-09-04T07:39:52.575Z,81.59
2022-09-04T07:40:52.503Z,81.48
2022-09-04T07:41:52.463Z,81.88
2022-09-04T07:42:52.448Z,81.42
2022-09-04T07:43:54.832Z,82.18
2022-09-04T07:44:52.417Z,81.48
2022-09-04T07:45:52.428Z,81.42
2022-09-04T07:46:52.415Z,80.98
2022-09-04T07:47:52.366Z,81.09
2022-09-04T07:48:52.347Z,81.18
2022-09-04T07:49:52.349Z,80.88
2022-09-04T07:50:52.313Z,80.65
2022-09-04T07:51:52.318Z,80.54
2022-09-04T07:52:52.289Z,80.71
2022-09-04T07:53:52.272Z,79.91
2022-09-04T07:54:52.248Z,79.80
2022-09-04T07:55:52.251Z,79.30
2022-09-04T07:56:52.219Z,79.50
2022-09-04T07:57:52.229Z,79.41
2022-09-04T07:58:52.191Z,78.70
2022-09-04T07:59:52.164Z,78.80
2022-09-04T08:00:52.152Z,79.17
2022-09-04T08:01:52.168Z,79.36
2022-09-04T08:02:52.134Z,78.17
2022-09-04T08:03:54.615Z,78.70
2022-09-04T08:04:52.115Z,79.50
2022-09-04T08:05:52.066Z,79.60
2022-09-04T08:06:52.052Z,79.50
2022-09-04T08:07:52.033Z,79.47
2022-09-04T08:08:52.032Z,79.57
2022-09-04T08:09:52.004Z,78.83
2022-09-04T08:10:51.985Z,78.33
2022-09-04T08:11:52.034Z,77.49
2022-09-04T08:12:51.952Z,77.23
2022-09-04T08:13:51.932Z,77.69
2022-09-04T08:14:51.923Z,76.29
2022-09-04T08:15:51.958Z,77.09
2022-09-04T08:16:53.402Z,75.69
2022-09-04T08:17:51.888Z,76.15
2022-09-04T08:18:51.839Z,75.96
2022-09-04T08:19:51.847Z,76.35
2022-09-04T08:20:51.832Z,75.96
2022-09-04T08:21:51.841Z,75.89
2022-09-04T08:22:51.776Z,76.65
2022-09-04T08:23:51.764Z,75.96
2022-09-04T08:24:51.744Z,76.26
2022-09-04T08:25:51.729Z,75.22
2022-09-04T08:26:51.715Z,75.22
2022-09-04T08:27:51.710Z,75.02
2022-09-04T08:28:51.681Z,76.22
2022-09-04T08:29:51.665Z,75.22
2022-09-04T08:30:51.699Z,74.38
2022-09-04T08:31:51.645Z,74.08
2022-09-04T08:32:51.618Z,74.49
2022-09-04T08:33:51.613Z,74.15
2022-09-04T08:34:51.630Z,73.55
2022-09-04T08:35:51.565Z,74.25
2022-09-04T08:36:51.547Z,74.15
2022-09-04T08:37:51.548Z,74.02
2022-09-04T08:38:51.534Z,74.11
2022-09-04T08:39:51.614Z,74.21
2022-09-04T08:40:52.286Z,74.02
2022-09-04T08:41:51.470Z,73.02
2022-09-04T08:42:51.480Z,73.22
2022-09-04T08:43:51.437Z,73.32
2022-09-04T08:44:51.455Z,73.02
2022-09-04T08:45:51.487Z,72.58
2022-09-04T08:46:51.414Z,72.88
2022-09-04T08:47:51.371Z,72.98
2022-09-04T08:48:51.372Z,73.18
2022-09-04T08:49:51.338Z,72.38
2022-09-04T08:50:51.324Z,72.45
2022-09-04T08:51:51.305Z,73.14
2022-09-04T08:52:51.296Z,73.21
2022-09-04T08:53:51.273Z,71.42
2022-09-04T08:54:51.282Z,70.68
2022-09-04T08:55:51.239Z,70.29
2022-09-04T08:56:51.238Z,69.99
2022-09-04T08:57:51.206Z,69.99
2022-09-04T08:58:51.197Z,69.46
2022-09-04T08:59:51.177Z,69.66
2022-09-04T09:00:51.187Z,69.46
2022-09-04T09:01:51.203Z,69.13
2022-09-04T09:02:51.168Z,68.63
2022-09-04T09:03:51.117Z,68.50
2022-09-04T09:04:51.103Z,66.88
2022-09-04T09:05:51.613Z,67.18
2022-09-04T09:06:51.075Z,66.78
2022-09-04T09:07:51.071Z,66.74
2022-09-04T09:08:51.039Z,66.94
2022-09-04T09:09:51.027Z,67.64
2022-09-04T09:10:51.009Z,67.44
2022-09-04T09:11:50.998Z,67.04
2022-09-04T09:12:50.998Z,66.64
2022-09-04T09:13:50.985Z,66.41
2022-09-04T09:14:50.949Z,65.12
2022-09-04T09:15:50.934Z,64.40
2022-09-04T09:16:50.973Z,65.22
2022-09-04T09:17:50.913Z,64.86
2022-09-04T09:18:50.898Z,64.92
2022-09-04T09:19:50.891Z,64.70
2022-09-04T09:20:50.852Z,64.70
2022-09-04T09:21:50.845Z,64.13
2022-09-04T09:22:50.832Z,65.32
2022-09-04T09:23:50.820Z,63.40
2022-09-04T09:24:50.818Z,63.48
2022-09-04T09:25:50.806Z,63.15
2022-09-04T09:26:50.774Z,62.32
2022-09-04T09:27:50.763Z,61.83
2022-09-04T09:28:50.755Z,62.19
2022-09-04T09:29:50.743Z,60.62
2022-09-04T09:30:50.787Z,58.78
2022-09-04T09:31:50.729Z,57.64
2022-09-04T09:32:50.694Z,56.78
2022-09-04T09:33:50.684Z,57.65
2022-09-04T09:34:50.689Z,59.14
2022-09-04T09:35:50.674Z,60.16
2022-09-04T09:36:50.641Z,58.51
2022-09-04T09:37:50.642Z,58.98
2022-09-04T09:38:50.624Z,57.07
2022-09-04T09:39:50.635Z,57.37
2022-09-04T09:40:50.612Z,57.42
2022-09-04T09:41:50.577Z,56.90
2022-09-04T09:42:50.560Z,57.67
2022-09-04T09:43:50.566Z,56.36
2022-09-04T09:44:50.562Z,55.32
2022-09-04T09:45:50.576Z,55.22
2022-09-04T09:46:50.522Z,53.86
2022-09-04T09:47:50.525Z,53.14
2022-09-04T09:48:50.509Z,52.85
2022-09-04T09:49:50.484Z,54.43
2022-09-04T09:50:50.479Z,55.15
2022-09-04T09:51:50.458Z,55.22
2022-09-04T09:52:50.479Z,55.36
2022-09-04T09:53:50.452Z,53.47
2022-09-04T09:54:50.427Z,53.02
2022-09-04T09:55:50.433Z,52.62
2022-09-04T09:56:54.087Z,54.13
2022-09-04T09:57:50.391Z,53.66
2022-09-04T09:58:50.392Z,54.11
2022-09-04T09:59:50.389Z,54.08
2022-09-04T10:00:50.408Z,54.22
2022-09-04T10:03:32.599Z,51.57
2022-09-04T10:04:32.603Z,53.78
2022-09-04T10:05:32.581Z,52.68
2022-09-04T10:06:32.579Z,53.52
2022-09-04T10:07:32.561Z,53.61
2022-09-04T10:08:36.045Z,53.42
2022-09-04T10:09:32.553Z,52.80
2022-09-04T10:10:32.552Z,54.26
2022-09-04T10:11:32.529Z,55.05
2022-09-04T10:12:32.513Z,55.40
2022-09-04T10:13:32.515Z,55.64
2022-09-04T10:14:32.503Z,53.91
2022-09-04T10:15:32.526Z,53.91
2022-09-04T10:16:32.782Z,53.99
2022-09-04T10:17:32.492Z,53.34
2022-09-04T10:18:32.515Z,52.78
2022-09-04T10:19:34.667Z,52.75
2022-09-04T10:20:32.472Z,51.35
2022-09-04T10:21:32.467Z,51.50
2022-09-04T10:22:32.442Z,51.69
2022-09-04T10:23:32.435Z,51.76
2022-09-04T10:24:32.429Z,51.57
2022-09-04T10:25:32.420Z,51.45
2022-09-04T10:26:32.414Z,51.84
2022-09-04T10:27:32.427Z,51.42
2022-09-04T10:28:32.416Z,51.79
2022-09-04T10:29:32.395Z,53.84
2022-09-04T10:30:32.406Z,54.06
2022-09-04T10:31:32.372Z,54.40
2022-09-04T10:32:32.392Z,51.50
2022-09-04T10:33:32.375Z,51.42
2022-09-04T10:34:32.349Z,52.70
2022-09-04T10:35:32.383Z,51.59
2022-09-04T10:36:32.343Z,51.18
2022-09-04T10:37:32.324Z,49.26
2022-09-04T10:38:32.345Z,48.94
2022-09-04T10:39:32.355Z,48.91
2022-09-04T10:40:32.309Z,49.04
2022-09-04T10:41:32.316Z,49.16
2022-09-04T10:42:32.292Z,49.26
2022-09-04T10:43:32.283Z,48.94
2022-09-04T10:44:32.292Z,50.63
2022-09-04T10:45:32.294Z,49.35
2022-09-04T10:46:32.293Z,51.42
2022-09-04T10:47:32.972Z,50.73
2022-09-04T10:48:32.239Z,49.50
2022-09-04T10:49:32.229Z,50.71
2022-09-04T10:50:32.247Z,50.73
2022-09-04T10:51:32.220Z,51.84
2022-09-04T10:52:32.222Z,53.00
2022-09-04T10:53:32.205Z,52.40
2022-09-04T10:54:32.197Z,51.30
2022-09-04T10:55:32.187Z,51.42
2022-09-04T10:56:32.199Z,50.83
2022-09-04T10:57:32.196Z,51.10
2022-09-04T10:58:32.161Z,51.07
2022-09-04T10:59:32.156Z,50.12
2022-09-04T11:00:32.150Z,51.92
2022-09-04T11:01:32.184Z,51.03
2022-09-04T11:02:32.175Z,51.87
2022-09-04T11:03:32.127Z,52.33
2022-09-04T11:04:32.118Z,52.92
2022-09-04T11:05:32.110Z,53.07
2022-09-04T11:06:32.103Z,50.42
2022-09-04T11:07:32.122Z,51.69
2022-09-04T11:08:32.088Z,51.84
2022-09-04T11:09:32.098Z,48.94
2022-09-04T11:10:32.073Z,46.78
2022-09-04T11:11:32.069Z,46.88
2022-09-04T11:12:32.058Z,46.36
2022-09-04T11:13:32.082Z,48.47
2022-09-04T11:14:32.042Z,49.28
2022-09-04T11:15:32.035Z,48.71
2022-09-04T11:16:32.093Z,48.77
2022-09-04T11:17:32.023Z,48.35
2022-09-04T11:18:32.032Z,48.18
2022-09-04T11:19:32.006Z,48.86
2022-09-04T11:20:32.023Z,49.40
2022-09-04T11:21:31.988Z,48.69
2022-09-04T11:22:31.987Z,48.67
2022-09-04T11:23:31.972Z,49.08
2022-09-04T11:24:31.967Z,49.30
2022-09-04T11:25:31.983Z,49.28
2022-09-04T11:26:31.954Z,49.21
2022-09-04T11:27:31.947Z,49.48
2022-09-04T11:28:31.939Z,48.86
2022-09-04T11:29:31.949Z,48.67
2022-09-04T11:30:31.950Z,48.74
2022-09-04T11:31:31.953Z,49.51
2022-09-04T11:32:31.920Z,48.89
2022-09-04T11:33:31.901Z,48.35
2022-09-04T11:34:31.896Z,46.30
2022-09-04T11:35:31.902Z,46.91
2022-09-04T11:36:31.882Z,46.95
2022-09-04T11:37:31.881Z,45.27
2022-09-04T11:38:31.869Z,44.46
2022-09-04T11:39:31.901Z,45.64
2022-09-04T11:40:31.857Z,45.73
2022-09-04T11:41:31.865Z,46.25
2022-09-04T11:42:31.841Z,45.39
2022-09-04T11:43:31.838Z,46.73
2022-09-04T11:44:31.834Z,46.60
2022-09-04T11:45:31.905Z,48.83
2022-09-04T11:46:31.836Z,49.35
2022-09-04T11:47:31.826Z,51.35
2022-09-04T11:48:31.795Z,51.67
2022-09-04T11:49:31.793Z,52.06
2022-09-04T11:50:31.779Z,52.16
2022-09-04T11:51:31.780Z,52.56
2022-09-04T11:52:31.786Z,51.67
2022-09-04T11:53:31.767Z,51.62
2022-09-04T11:54:31.747Z,52.23
2022-09-04T11:55:31.740Z,53.15
2022-09-04T11:56:31.733Z,52.58
2022-09-04T11:57:31.719Z,52.06
2022-09-04T11:58:31.728Z,50.73
2022-09-04T11:59:31.713Z,49.70
2022-09-04T12:00:31.698Z,49.55
2022-09-04T12:01:31.687Z,48.50
2022-09-04T12:02:31.756Z,48.06
2022-09-04T12:03:31.686Z,46.25
2022-09-04T12:04:31.684Z,45.23
2022-09-04T12:05:31.648Z,43.52
2022-09-04T12:06:31.639Z,43.08
2022-09-04T12:07:40.678Z,43.40
2022-09-04T12:08:31.638Z,43.91
2022-09-04T12:09:31.615Z,42.17
2022-09-04T12:10:31.615Z,44.70
2022-09-04T12:11:31.598Z,45.83
2022-09-04T12:12:31.590Z,46.93
2022-09-04T12:13:32.036Z,46.85
2022-09-04T12:14:31.575Z,47.81
2022-09-04T12:15:31.578Z,46.02
2022-09-04T12:16:31.617Z,47.67
2022-09-04T12:17:31.551Z,46.49
2022-09-04T12:18:31.538Z,46.98
2022-09-04T12:19:31.549Z,46.86
2022-09-04T12:20:31.521Z,46.44
2022-09-04T12:21:31.515Z,46.91
2022-09-04T12:22:31.526Z,46.62
2022-09-04T12:23:31.494Z,46.52
2022-09-04T12:24:31.489Z,45.42
2022-09-04T12:25:31.520Z,45.28
2022-09-04T12:26:31.472Z,43.42
2022-09-04T12:27:31.460Z,42.54
2022-09-04T12:28:31.475Z,44.01
2022-09-04T12:29:31.442Z,43.38
2022-09-04T12:30:31.440Z,43.84
2022-09-04T12:31:31.513Z,44.89
2022-09-04T12:32:31.424Z,45.52
2022-09-04T12:33:31.415Z,46.11
2022-09-04T12:34:31.430Z,46.70
2022-09-04T12:35:32.184Z,46.80
2022-09-04T12:36:31.387Z,45.42
2022-09-04T12:37:31.385Z,45.72
2022-09-04T12:38:31.382Z,45.77
2022-09-04T12:39:31.450Z,45.18
2022-09-04T12:42:13.674Z,44.69
2022-09-04T12:43:13.665Z,45.48
2022-09-04T12:44:13.655Z,45.92
2022-09-04T12:45:13.650Z,45.54
2022-09-04T12:46:13.752Z,46.75
2022-09-04T12:47:13.642Z,46.87
2022-09-04T12:48:13.612Z,46.97
2022-09-04T12:49:13.610Z,46.65
2022-09-04T12:50:13.607Z,46.11
2022-09-04T12:51:13.588Z,45.60
2022-09-04T12:52:13.604Z,46.09
2022-09-04T12:53:13.567Z,45.03
2022-09-04T12:54:13.557Z,45.32
2022-09-04T12:55:13.554Z,45.13
2022-09-04T12:56:13.539Z,45.62
2022-09-04T12:57:13.563Z,46.01
2022-09-04T12:58:13.519Z,44.46
2022-09-04T12:59:16.260Z,46.84
2022-09-04T13:00:13.508Z,46.60
2022-09-04T13:01:13.570Z,46.06
2022-09-04T13:02:13.682Z,43.27